KGAD/GAD METAR and TAF weather

Enter ICAO airport designator
Station Type Date Time Source
KGAD METAR 2022/01/29 12:56 UTC NOAA

KGAD 291256Z AUTO 33004KT 10SM CLR M05/M09 A3031 RMK AO2 SLP275 T10501094 FZRANO $


Station Type Date Time Source
KGAD Decoded METAR 2022/01/29 12:56 UTC NOAA

Gadsden, Gadsden Municipal Airport, AL, United States (KGAD) 33-58N 086-05W
Jan 29, 2022 - 07:56 AM EST / 2022.01.29 1256 UTC
Wind: from the NNW (330 degrees) at 5 MPH (4 KT):0
Visibility: 10 mile(s):0
Sky conditions: clear
Temperature: 23.0 F (-5.0 C)
Windchill: 15 F (-9 C):1
Dew Point: 15.1 F (-9.4 C)
Relative Humidity: 71%
Pressure (altimeter): 30.31 in. Hg (1026 hPa)
ob: KGAD 291256Z AUTO 33004KT 10SM CLR M05/M09 A3031 RMK AO2 SLP275 T10501094 FZRANO
cycle: 13

Station Type Date Time Source
KGAD TAF UTC NOAA

Error!

Example: see airport list